sensor_id;sensor_type;location;lat;lon;timestamp;pressure;altitude;pressure_sealevel;temperature;humidity
48424;BME280;34232;42.502;26.014;2023-02-04T00:01:40;100069.16;;;3.01;67.64
48424;BME280;34232;42.502;26.014;2023-02-04T00:04:05;100036.97;;;2.86;67.33
48424;BME280;34232;42.502;26.014;2023-02-04T00:06:30;100062.63;;;3.09;66.95
48424;BME280;34232;42.502;26.014;2023-02-04T00:08:56;100063.31;;;3.13;66.59
48424;BME280;34232;42.502;26.014;2023-02-04T00:11:21;100061.47;;;3.15;66.59
48424;BME280;34232;42.502;26.014;2023-02-04T00:13:47;100041.09;;;3.07;66.56
48424;BME280;34232;42.502;26.014;2023-02-04T00:16:15;100050.75;;;3.21;66.61
48424;BME280;34232;42.502;26.014;2023-02-04T00:18:40;100051.91;;;3.15;67.84
48424;BME280;34232;42.502;26.014;2023-02-04T00:21:06;100050.59;;;3.24;66.78
48424;BME280;34232;42.502;26.014;2023-02-04T00:23:31;100028.66;;;3.12;67.65
48424;BME280;34232;42.502;26.014;2023-02-04T00:25:56;100038.44;;;3.25;67.95
48424;BME280;34232;42.502;26.014;2023-02-04T00:28:22;100034.66;;;3.30;67.51
48424;BME280;34232;42.502;26.014;2023-02-04T00:30:47;100020.38;;;3.22;67.54
48424;BME280;34232;42.502;26.014;2023-02-04T00:33:13;100019.06;;;3.30;67.23
48424;BME280;34232;42.502;26.014;2023-02-04T00:35:38;100013.84;;;3.30;67.69
48424;BME280;34232;42.502;26.014;2023-02-04T00:38:04;99999.06;;;3.15;68.12
48424;BME280;34232;42.502;26.014;2023-02-04T00:40:30;100012.31;;;3.26;67.87
48424;BME280;34232;42.502;26.014;2023-02-04T00:42:56;100002.94;;;3.24;68.34
48424;BME280;34232;42.502;26.014;2023-02-04T00:45:21;99996.38;;;3.16;69.31
48424;BME280;34232;42.502;26.014;2023-02-04T00:47:47;100001.34;;;3.21;68.85
48424;BME280;34232;42.502;26.014;2023-02-04T00:50:12;99966.13;;;2.98;68.66
48424;BME280;34232;42.502;26.014;2023-02-04T00:52:38;99986.66;;;3.20;67.45
48424;BME280;34232;42.502;26.014;2023-02-04T00:55:04;99995.03;;;3.25;66.31
48424;BME280;34232;42.502;26.014;2023-02-04T00:57:29;99982.97;;;3.08;67.87
48424;BME280;34232;42.502;26.014;2023-02-04T00:59:55;99980.25;;;3.10;67.88
48424;BME280;34232;42.502;26.014;2023-02-04T01:02:20;99995.16;;;2.91;68.79
48424;BME280;34232;42.502;26.014;2023-02-04T01:04:45;99994.97;;;2.94;68.26
48424;BME280;34232;42.502;26.014;2023-02-04T01:07:11;99979.91;;;3.00;67.79
48424;BME280;34232;42.502;26.014;2023-02-04T01:09:36;99968.66;;;3.00;67.76
48424;BME280;34232;42.502;26.014;2023-02-04T01:12:02;99974.03;;;2.97;67.78
48424;BME280;34232;42.502;26.014;2023-02-04T01:14:27;99967.25;;;2.77;69.35
48424;BME280;34232;42.502;26.014;2023-02-04T01:16:53;99969.19;;;2.73;69.63
48424;BME280;34232;42.502;26.014;2023-02-04T01:19:18;99967.50;;;2.72;69.10
48424;BME280;34232;42.502;26.014;2023-02-04T01:21:45;99966.72;;;2.88;68.47
48424;BME280;34232;42.502;26.014;2023-02-04T01:24:10;99954.91;;;2.98;68.39
48424;BME280;34232;42.502;26.014;2023-02-04T01:26:36;99940.81;;;3.02;67.99
48424;BME280;34232;42.502;26.014;2023-02-04T01:29:01;99945.72;;;3.08;68.14
48424;BME280;34232;42.502;26.014;2023-02-04T01:31:27;99940.31;;;3.11;67.73
48424;BME280;34232;42.502;26.014;2023-02-04T01:33:52;99939.22;;;2.99;68.50
48424;BME280;34232;42.502;26.014;2023-02-04T01:36:17;99935.13;;;3.11;68.30
48424;BME280;34232;42.502;26.014;2023-02-04T01:38:46;99936.66;;;3.15;68.07
48424;BME280;34232;42.502;26.014;2023-02-04T01:41:12;99930.97;;;3.24;68.12
48424;BME280;34232;42.502;26.014;2023-02-04T01:43:38;99926.69;;;3.23;68.30
48424;BME280;34232;42.502;26.014;2023-02-04T01:46:03;99921.22;;;3.28;68.13
48424;BME280;34232;42.502;26.014;2023-02-04T01:48:29;99919.19;;;3.17;68.39
48424;BME280;34232;42.502;26.014;2023-02-04T01:51:04;99914.41;;;3.25;68.74
48424;BME280;34232;42.502;26.014;2023-02-04T01:53:30;99895.28;;;3.26;69.22
48424;BME280;34232;42.502;26.014;2023-02-04T01:55:56;99890.84;;;3.28;69.23
48424;BME280;34232;42.502;26.014;2023-02-04T01:58:22;99891.00;;;3.25;69.20
48424;BME280;34232;42.502;26.014;2023-02-04T02:00:47;99880.50;;;3.27;69.63
48424;BME280;34232;42.502;26.014;2023-02-04T02:03:13;99882.28;;;3.26;68.41
48424;BME280;34232;42.502;26.014;2023-02-04T02:05:42;99881.94;;;3.32;69.19
48424;BME280;34232;42.502;26.014;2023-02-04T02:08:09;99883.31;;;3.08;69.29
48424;BME280;34232;42.502;26.014;2023-02-04T02:10:35;99864.16;;;3.09;69.06
48424;BME280;34232;42.502;26.014;2023-02-04T02:13:02;99868.69;;;3.21;69.69
48424;BME280;34232;42.502;26.014;2023-02-04T02:15:28;99869.09;;;3.29;69.74
48424;BME280;34232;42.502;26.014;2023-02-04T02:17:54;99863.50;;;3.21;71.18
48424;BME280;34232;42.502;26.014;2023-02-04T02:20:21;99867.34;;;3.30;70.26
48424;BME280;34232;42.502;26.014;2023-02-04T02:25:47;99865.75;;;3.27;69.71
48424;BME280;34232;42.502;26.014;2023-02-04T02:28:15;99865.56;;;3.30;70.85
48424;BME280;34232;42.502;26.014;2023-02-04T02:30:41;99860.97;;;3.35;71.37
48424;BME280;34232;42.502;26.014;2023-02-04T02:33:10;99853.25;;;3.34;71.79
48424;BME280;34232;42.502;26.014;2023-02-04T02:35:39;99850.97;;;3.28;72.23
48424;BME280;34232;42.502;26.014;2023-02-04T02:38:08;99847.19;;;3.33;72.00
48424;BME280;34232;42.502;26.014;2023-02-04T02:40:34;99850.19;;;3.41;72.07
48424;BME280;34232;42.502;26.014;2023-02-04T02:42:59;99842.59;;;3.38;72.04
48424;BME280;34232;42.502;26.014;2023-02-04T02:45:27;99841.13;;;3.48;71.01
48424;BME280;34232;42.502;26.014;2023-02-04T02:47:56;99842.28;;;3.59;69.78
48424;BME280;34232;42.502;26.014;2023-02-04T02:50:25;99843.63;;;3.66;69.62
48424;BME280;34232;42.502;26.014;2023-02-04T02:52:52;99843.97;;;3.60;69.93
48424;BME280;34232;42.502;26.014;2023-02-04T02:55:19;99836.91;;;3.62;70.65
48424;BME280;34232;42.502;26.014;2023-02-04T02:57:47;99826.66;;;3.59;71.36
48424;BME280;34232;42.502;26.014;2023-02-04T03:00:15;99827.50;;;3.59;71.81
48424;BME280;34232;42.502;26.014;2023-02-04T03:02:41;99822.16;;;3.46;72.53
48424;BME280;34232;42.502;26.014;2023-02-04T03:05:07;99809.31;;;3.43;72.53
48424;BME280;34232;42.502;26.014;2023-02-04T03:07:33;99813.44;;;3.47;72.51
48424;BME280;34232;42.502;26.014;2023-02-04T03:09:58;99801.19;;;3.49;72.58
48424;BME280;34232;42.502;26.014;2023-02-04T03:12:24;99799.16;;;3.55;72.31
48424;BME280;34232;42.502;26.014;2023-02-04T03:14:49;99802.69;;;3.54;72.27
48424;BME280;34232;42.502;26.014;2023-02-04T03:17:15;99788.75;;;3.55;71.12
48424;BME280;34232;42.502;26.014;2023-02-04T03:19:41;99788.75;;;3.55;70.97
48424;BME280;34232;42.502;26.014;2023-02-04T03:22:06;99787.09;;;3.54;71.07
48424;BME280;34232;42.502;26.014;2023-02-04T03:24:32;99793.81;;;3.42;72.03
48424;BME280;34232;42.502;26.014;2023-02-04T03:26:58;99792.97;;;3.41;72.13
48424;BME280;34232;42.502;26.014;2023-02-04T03:29:24;99781.91;;;3.38;72.09
48424;BME280;34232;42.502;26.014;2023-02-04T03:31:50;99783.91;;;3.48;71.36
48424;BME280;34232;42.502;26.014;2023-02-04T03:34:15;99784.66;;;3.50;71.17
48424;BME280;34232;42.502;26.014;2023-02-04T03:36:41;99781.38;;;3.47;70.52
48424;BME280;34232;42.502;26.014;2023-02-04T03:39:06;99773.09;;;3.40;70.79
48424;BME280;34232;42.502;26.014;2023-02-04T03:41:32;99775.50;;;3.43;70.62
48424;BME280;34232;42.502;26.014;2023-02-04T03:43:57;99768.00;;;3.39;70.61
48424;BME280;34232;42.502;26.014;2023-02-04T03:46:22;99771.97;;;3.44;71.61
48424;BME280;34232;42.502;26.014;2023-02-04T03:48:50;99776.19;;;3.47;71.97
48424;BME280;34232;42.502;26.014;2023-02-04T03:51:15;99752.81;;;3.31;72.48
48424;BME280;34232;42.502;26.014;2023-02-04T03:53:40;99758.22;;;3.42;73.44
48424;BME280;34232;42.502;26.014;2023-02-04T03:56:06;99761.22;;;3.50;73.21
48424;BME280;34232;42.502;26.014;2023-02-04T03:58:31;99756.88;;;3.51;73.39
48424;BME280;34232;42.502;26.014;2023-02-04T04:00:57;99756.19;;;3.47;74.30
48424;BME280;34232;42.502;26.014;2023-02-04T04:03:22;99749.81;;;3.53;74.00
48424;BME280;34232;42.502;26.014;2023-02-04T04:05:48;99737.06;;;3.48;74.26
48424;BME280;34232;42.502;26.014;2023-02-04T04:08:13;99737.91;;;3.49;74.79
48424;BME280;34232;42.502;26.014;2023-02-04T04:10:39;99709.34;;;3.33;75.90
48424;BME280;34232;42.502;26.014;2023-02-04T04:13:04;99743.19;;;3.47;75.67
48424;BME280;34232;42.502;26.014;2023-02-04T04:15:30;99730.34;;;3.44;75.55
48424;BME280;34232;42.502;26.014;2023-02-04T04:17:55;99733.03;;;3.43;76.98
48424;BME280;34232;42.502;26.014;2023-02-04T04:20:21;99726.22;;;3.26;76.98
48424;BME280;34232;42.502;26.014;2023-02-04T04:22:50;99715.84;;;3.10;77.61
48424;BME280;34232;42.502;26.014;2023-02-04T04:25:16;99720.22;;;3.10;78.20
48424;BME280;34232;42.502;26.014;2023-02-04T04:27:41;99723.75;;;3.09;78.49
48424;BME280;34232;42.502;26.014;2023-02-04T04:30:07;99725.63;;;3.07;78.72
48424;BME280;34232;42.502;26.014;2023-02-04T04:32:33;99731.97;;;3.17;78.31
48424;BME280;34232;42.502;26.014;2023-02-04T04:34:58;99728.34;;;3.20;78.62
48424;BME280;34232;42.502;26.014;2023-02-04T04:37:23;99730.69;;;3.24;78.99
48424;BME280;34232;42.502;26.014;2023-02-04T04:39:49;99725.97;;;3.31;77.73
48424;BME280;34232;42.502;26.014;2023-02-04T04:42:14;99723.34;;;3.31;77.53
48424;BME280;34232;42.502;26.014;2023-02-04T04:44:40;99706.53;;;3.22;77.46
48424;BME280;34232;42.502;26.014;2023-02-04T04:47:05;99719.00;;;3.31;77.39
48424;BME280;34232;42.502;26.014;2023-02-04T04:49:30;99717.13;;;3.33;77.79
48424;BME280;34232;42.502;26.014;2023-02-04T04:51:56;99710.84;;;3.37;78.27
48424;BME280;34232;42.502;26.014;2023-02-04T04:54:21;99713.28;;;3.40;78.00
48424;BME280;34232;42.502;26.014;2023-02-04T04:56:47;99711.22;;;3.45;77.73
48424;BME280;34232;42.502;26.014;2023-02-04T04:59:12;99698.13;;;3.47;77.12
48424;BME280;34232;42.502;26.014;2023-02-04T05:01:37;99708.53;;;3.47;77.27
48424;BME280;34232;42.502;26.014;2023-02-04T05:04:03;99705.84;;;3.48;78.21
48424;BME280;34232;42.502;26.014;2023-02-04T05:06:29;99700.06;;;3.43;77.66
48424;BME280;34232;42.502;26.014;2023-02-04T05:08:54;99694.31;;;3.38;77.99
48424;BME280;34232;42.502;26.014;2023-02-04T05:11:20;99712.88;;;3.46;78.63
48424;BME280;34232;42.502;26.014;2023-02-04T05:13:46;99717.56;;;3.26;79.75
48424;BME280;34232;42.502;26.014;2023-02-04T05:16:12;99718.72;;;3.36;79.51
48424;BME280;34232;42.502;26.014;2023-02-04T05:18:40;99726.63;;;3.34;79.43
48424;BME280;34232;42.502;26.014;2023-02-04T05:21:07;99715.13;;;3.38;79.10
48424;BME280;34232;42.502;26.014;2023-02-04T05:23:32;99716.13;;;3.36;79.42
48424;BME280;34232;42.502;26.014;2023-02-04T05:25:58;99721.00;;;3.26;80.71
48424;BME280;34232;42.502;26.014;2023-02-04T05:28:23;99715.00;;;3.10;81.20
48424;BME280;34232;42.502;26.014;2023-02-04T05:30:49;99705.53;;;3.09;82.22
48424;BME280;34232;42.502;26.014;2023-02-04T05:33:14;99712.06;;;3.16;82.45
48424;BME280;34232;42.502;26.014;2023-02-04T05:35:40;99713.00;;;3.15;82.37
48424;BME280;34232;42.502;26.014;2023-02-04T05:38:05;99693.03;;;3.15;82.48
48424;BME280;34232;42.502;26.014;2023-02-04T05:40:30;99684.13;;;3.20;81.95
48424;BME280;34232;42.502;26.014;2023-02-04T05:42:56;99692.69;;;3.22;82.11
48424;BME280;34232;42.502;26.014;2023-02-04T05:45:21;99695.38;;;3.20;83.23
48424;BME280;34232;42.502;26.014;2023-02-04T05:47:47;99691.84;;;3.21;83.34
48424;BME280;34232;42.502;26.014;2023-02-04T05:50:13;99689.81;;;3.26;82.91
48424;BME280;34232;42.502;26.014;2023-02-04T05:52:39;99689.63;;;3.29;82.16
48424;BME280;34232;42.502;26.014;2023-02-04T05:55:13;99678.09;;;3.19;82.17
48424;BME280;34232;42.502;26.014;2023-02-04T05:57:38;99683.13;;;3.22;81.93
48424;BME280;34232;42.502;26.014;2023-02-04T06:00:05;99692.53;;;3.25;81.45
48424;BME280;34232;42.502;26.014;2023-02-04T06:02:31;99681.44;;;3.21;81.70
48424;BME280;34232;42.502;26.014;2023-02-04T06:04:56;99690.53;;;3.14;82.16
48424;BME280;34232;42.502;26.014;2023-02-04T06:07:21;99683.66;;;3.13;81.90
48424;BME280;34232;42.502;26.014;2023-02-04T06:09:47;99690.69;;;3.11;81.52
48424;BME280;34232;42.502;26.014;2023-02-04T06:12:12;99699.31;;;3.11;81.65
48424;BME280;34232;42.502;26.014;2023-02-04T06:14:38;99694.41;;;3.07;82.19
48424;BME280;34232;42.502;26.014;2023-02-04T06:17:03;99696.19;;;3.06;82.00
48424;BME280;34232;42.502;26.014;2023-02-04T06:19:29;99683.94;;;3.08;83.13
48424;BME280;34232;42.502;26.014;2023-02-04T06:21:54;99682.13;;;3.09;83.62
48424;BME280;34232;42.502;26.014;2023-02-04T06:24:19;99681.78;;;3.15;83.95
48424;BME280;34232;42.502;26.014;2023-02-04T06:26:45;99671.03;;;3.21;84.29
48424;BME280;34232;42.502;26.014;2023-02-04T06:29:10;99668.28;;;3.24;84.47
48424;BME280;34232;42.502;26.014;2023-02-04T06:31:35;99648.38;;;3.23;84.43
48424;BME280;34232;42.502;26.014;2023-02-04T06:34:02;99669.22;;;3.37;83.51
48424;BME280;34232;42.502;26.014;2023-02-04T06:36:28;99663.28;;;3.35;83.93
48424;BME280;34232;42.502;26.014;2023-02-04T06:38:53;99647.91;;;3.31;84.32
48424;BME280;34232;42.502;26.014;2023-02-04T06:41:19;99655.19;;;3.40;84.40
48424;BME280;34232;42.502;26.014;2023-02-04T06:43:44;99662.88;;;3.41;84.77
48424;BME280;34232;42.502;26.014;2023-02-04T06:46:10;99663.09;;;3.38;85.16
48424;BME280;34232;42.502;26.014;2023-02-04T06:48:35;99660.69;;;3.49;84.62
48424;BME280;34232;42.502;26.014;2023-02-04T06:51:00;99666.06;;;3.46;84.80
48424;BME280;34232;42.502;26.014;2023-02-04T06:53:26;99660.69;;;3.49;84.30
48424;BME280;34232;42.502;26.014;2023-02-04T06:55:51;99666.53;;;3.53;84.20
48424;BME280;34232;42.502;26.014;2023-02-04T06:58:17;99679.25;;;3.58;84.22
48424;BME280;34232;42.502;26.014;2023-02-04T07:00:42;99665.13;;;3.62;83.98
48424;BME280;34232;42.502;26.014;2023-02-04T07:03:08;99664.78;;;3.68;83.76
48424;BME280;34232;42.502;26.014;2023-02-04T07:05:33;99675.66;;;3.74;84.03
48424;BME280;34232;42.502;26.014;2023-02-04T07:07:59;99681.91;;;3.72;85.03
48424;BME280;34232;42.502;26.014;2023-02-04T07:10:24;99676.69;;;3.72;84.34
48424;BME280;34232;42.502;26.014;2023-02-04T07:12:50;99673.03;;;3.60;85.01
48424;BME280;34232;42.502;26.014;2023-02-04T07:15:15;99674.06;;;3.58;85.38
48424;BME280;34232;42.502;26.014;2023-02-04T07:17:40;99687.81;;;3.60;85.60
48424;BME280;34232;42.502;26.014;2023-02-04T07:20:06;99680.56;;;3.50;86.15
48424;BME280;34232;42.502;26.014;2023-02-04T07:22:32;99679.72;;;3.50;87.34
48424;BME280;34232;42.502;26.014;2023-02-04T07:24:57;99669.47;;;3.33;87.64
48424;BME280;34232;42.502;26.014;2023-02-04T07:27:23;99681.91;;;3.28;88.10
48424;BME280;34232;42.502;26.014;2023-02-04T07:29:48;99672.72;;;3.22;88.14
48424;BME280;34232;42.502;26.014;2023-02-04T07:32:13;99677.78;;;3.39;88.41
48424;BME280;34232;42.502;26.014;2023-02-04T07:34:39;99664.88;;;3.52;88.21
48424;BME280;34232;42.502;26.014;2023-02-04T07:37:04;99668.31;;;3.53;88.46
48424;BME280;34232;42.502;26.014;2023-02-04T07:39:30;99673.44;;;3.54;88.63
48424;BME280;34232;42.502;26.014;2023-02-04T07:41:55;99656.41;;;3.48;88.27
48424;BME280;34232;42.502;26.014;2023-02-04T07:44:20;99667.28;;;3.55;88.71
48424;BME280;34232;42.502;26.014;2023-02-04T07:46:46;99662.25;;;3.38;88.20
48424;BME280;34232;42.502;26.014;2023-02-04T07:49:11;99670.50;;;3.30;88.95
48424;BME280;34232;42.502;26.014;2023-02-04T07:51:36;99670.66;;;3.27;89.10
48424;BME280;34232;42.502;26.014;2023-02-04T07:54:02;99662.59;;;3.17;89.49
48424;BME280;34232;42.502;26.014;2023-02-04T07:56:27;99659.16;;;3.17;90.14
48424;BME280;34232;42.502;26.014;2023-02-04T07:58:53;99656.19;;;3.23;89.74
48424;BME280;34232;42.502;26.014;2023-02-04T08:01:18;99645.53;;;2.98;90.24
48424;BME280;34232;42.502;26.014;2023-02-04T08:03:44;99655.84;;;2.99;91.32
48424;BME280;34232;42.502;26.014;2023-02-04T08:06:09;99649.84;;;3.13;91.18
48424;BME280;34232;42.502;26.014;2023-02-04T08:08:35;99660.09;;;3.30;91.69
48424;BME280;34232;42.502;26.014;2023-02-04T08:11:01;99669.97;;;3.39;89.10
48424;BME280;34232;42.502;26.014;2023-02-04T08:13:26;99663.91;;;3.25;88.59
48424;BME280;34232;42.502;26.014;2023-02-04T08:15:51;99668.72;;;3.31;88.96
48424;BME280;34232;42.502;26.014;2023-02-04T08:18:17;99672.72;;;3.22;88.80
48424;BME280;34232;42.502;26.014;2023-02-04T08:20:42;99663.53;;;3.31;88.74
48424;BME280;34232;42.502;26.014;2023-02-04T08:23:08;99659.56;;;3.39;89.85
48424;BME280;34232;42.502;26.014;2023-02-04T08:25:33;99664.69;;;3.55;89.30
48424;BME280;34232;42.502;26.014;2023-02-04T08:27:59;99656.41;;;3.63;87.11
48424;BME280;34232;42.502;26.014;2023-02-04T08:30:24;99651.38;;;3.74;86.32
48424;BME280;34232;42.502;26.014;2023-02-04T08:32:50;99640.44;;;3.69;85.43
48424;BME280;34232;42.502;26.014;2023-02-04T08:35:15;99635.06;;;3.72;86.73
48424;BME280;34232;42.502;26.014;2023-02-04T08:37:41;99640.25;;;3.72;86.12
48424;BME280;34232;42.502;26.014;2023-02-04T08:40:06;99635.41;;;3.66;85.41
48424;BME280;34232;42.502;26.014;2023-02-04T08:42:32;99640.88;;;3.75;85.68
48424;BME280;34232;42.502;26.014;2023-02-04T08:44:59;99625.84;;;3.66;85.91
48424;BME280;34232;42.502;26.014;2023-02-04T08:47:24;99623.81;;;3.71;86.47
48424;BME280;34232;42.502;26.014;2023-02-04T08:49:50;99619.22;;;3.75;86.74
48424;BME280;34232;42.502;26.014;2023-02-04T08:52:15;99609.97;;;3.57;88.25
48424;BME280;34232;42.502;26.014;2023-02-04T08:54:41;99618.97;;;3.37;89.33
48424;BME280;34232;42.502;26.014;2023-02-04T08:57:06;99603.25;;;3.53;90.54
48424;BME280;34232;42.502;26.014;2023-02-04T08:59:31;99606.75;;;3.80;90.64
48424;BME280;34232;42.502;26.014;2023-02-04T09:01:57;99607.13;;;3.74;91.50
48424;BME280;34232;42.502;26.014;2023-02-04T09:04:22;99603.91;;;3.56;89.97
48424;BME280;34232;42.502;26.014;2023-02-04T09:06:49;99610.13;;;3.54;90.20
48424;BME280;34232;42.502;26.014;2023-02-04T09:09:15;99618.84;;;3.81;90.49
48424;BME280;34232;42.502;26.014;2023-02-04T09:11:42;99611.41;;;3.89;89.49
48424;BME280;34232;42.502;26.014;2023-02-04T09:14:07;99612.69;;;3.96;89.09
48424;BME280;34232;42.502;26.014;2023-02-04T09:16:33;99602.66;;;3.90;88.98
48424;BME280;34232;42.502;26.014;2023-02-04T09:18:59;99593.53;;;3.97;91.43
48424;BME280;34232;42.502;26.014;2023-02-04T09:21:26;99590.19;;;3.95;91.17
48424;BME280;34232;42.502;26.014;2023-02-04T09:23:51;99581.59;;;4.07;91.81
48424;BME280;34232;42.502;26.014;2023-02-04T09:26:17;99564.06;;;4.23;90.79
48424;BME280;34232;42.502;26.014;2023-02-04T09:28:42;99576.91;;;4.53;90.04
48424;BME280;34232;42.502;26.014;2023-02-04T09:31:08;99558.59;;;4.68;88.80
48424;BME280;34232;42.502;26.014;2023-02-04T09:33:35;99560.28;;;4.81;87.79
48424;BME280;34232;42.502;26.014;2023-02-04T09:36:00;99560.47;;;4.78;87.14
48424;BME280;34232;42.502;26.014;2023-02-04T09:38:26;99559.84;;;4.87;87.57
48424;BME280;34232;42.502;26.014;2023-02-04T09:40:57;99553.63;;;5.03;86.42
48424;BME280;34232;42.502;26.014;2023-02-04T09:43:26;99546.50;;;5.05;86.26
48424;BME280;34232;42.502;26.014;2023-02-04T09:45:53;99545.91;;;5.14;86.22
48424;BME280;34232;42.502;26.014;2023-02-04T09:48:20;99543.50;;;5.11;86.37
48424;BME280;34232;42.502;26.014;2023-02-04T09:50:46;99538.59;;;5.19;86.59
48424;BME280;34232;42.502;26.014;2023-02-04T09:53:15;99537.94;;;5.28;85.82
48424;BME280;34232;42.502;26.014;2023-02-04T09:55:44;99527.50;;;5.41;86.32
48424;BME280;34232;42.502;26.014;2023-02-04T09:58:13;99535.44;;;5.39;86.33
48424;BME280;34232;42.502;26.014;2023-02-04T10:00:42;99517.69;;;5.44;86.61
48424;BME280;34232;42.502;26.014;2023-02-04T10:03:16;99517.44;;;5.60;85.57
48424;BME280;34232;42.502;26.014;2023-02-04T10:05:44;99515.31;;;5.78;85.79
48424;BME280;34232;42.502;26.014;2023-02-04T10:08:19;99508.91;;;5.94;85.72
48424;BME280;34232;42.502;26.014;2023-02-04T10:10:45;99497.78;;;6.27;85.59
48424;BME280;34232;42.502;26.014;2023-02-04T10:13:16;99490.28;;;6.58;83.38
48424;BME280;34232;42.502;26.014;2023-02-04T10:15:43;99478.03;;;6.70;81.57
48424;BME280;34232;42.502;26.014;2023-02-04T10:18:13;99487.94;;;6.88;80.97
48424;BME280;34232;42.502;26.014;2023-02-04T10:20:40;99474.97;;;6.76;79.89
48424;BME280;34232;42.502;26.014;2023-02-04T10:23:09;99475.22;;;6.84;83.59
48424;BME280;34232;42.502;26.014;2023-02-04T10:25:35;99466.06;;;7.00;82.75
48424;BME280;34232;42.502;26.014;2023-02-04T10:28:00;99467.97;;;7.43;83.47
48424;BME280;34232;42.502;26.014;2023-02-04T10:30:39;99463.91;;;7.50;78.35
48424;BME280;34232;42.502;26.014;2023-02-04T10:33:23;99448.41;;;7.69;79.92
48424;BME280;34232;42.502;26.014;2023-02-04T10:35:55;99450.97;;;7.81;77.83
48424;BME280;34232;42.502;26.014;2023-02-04T10:38:21;99429.59;;;7.96;76.84
48424;BME280;34232;42.502;26.014;2023-02-04T10:40:47;99427.78;;;8.08;75.44
48424;BME280;34232;42.502;26.014;2023-02-04T10:43:31;99438.47;;;8.16;73.52
48424;BME280;34232;42.502;26.014;2023-02-04T10:46:00;99438.28;;;8.08;74.89
48424;BME280;34232;42.502;26.014;2023-02-04T10:48:26;99421.53;;;7.88;75.73
48424;BME280;34232;42.502;26.014;2023-02-04T10:50:52;99431.72;;;8.02;74.36
48424;BME280;34232;42.502;26.014;2023-02-04T10:53:20;99417.28;;;8.08;73.10
48424;BME280;34232;42.502;26.014;2023-02-04T10:56:25;99429.97;;;8.24;73.76
48424;BME280;34232;42.502;26.014;2023-02-04T10:58:50;99428.75;;;8.28;73.42
48424;BME280;34232;42.502;26.014;2023-02-04T11:01:16;99413.16;;;8.26;72.18
48424;BME280;34232;42.502;26.014;2023-02-04T11:03:42;99421.00;;;8.37;73.48
48424;BME280;34232;42.502;26.014;2023-02-04T11:06:13;99421.56;;;8.41;73.54
48424;BME280;34232;42.502;26.014;2023-02-04T11:08:40;99422.81;;;8.47;74.79
48424;BME280;34232;42.502;26.014;2023-02-04T11:11:15;99418.81;;;8.43;75.10
48424;BME280;34232;42.502;26.014;2023-02-04T11:13:44;99418.13;;;8.40;76.14
48424;BME280;34232;42.502;26.014;2023-02-04T11:18:48;99423.94;;;8.12;77.14
48424;BME280;34232;42.502;26.014;2023-02-04T11:21:25;99426.94;;;8.07;78.25
48424;BME280;34232;42.502;26.014;2023-02-04T11:26:45;99418.69;;;8.12;79.38
48424;BME280;34232;42.502;26.014;2023-02-04T11:37:01;99406.53;;;8.43;78.00
48424;BME280;34232;42.502;26.014;2023-02-04T11:39:41;99400.47;;;8.43;78.68
48424;BME280;34232;42.502;26.014;2023-02-04T11:42:39;99408.50;;;8.51;73.75
48424;BME280;34232;42.502;26.014;2023-02-04T11:45:19;99398.72;;;8.53;71.70
48424;BME280;34232;42.502;26.014;2023-02-04T11:47:45;99405.13;;;8.60;71.48
48424;BME280;34232;42.502;26.014;2023-02-04T11:50:32;99399.59;;;8.63;70.93
48424;BME280;34232;42.502;26.014;2023-02-04T11:52:59;99396.72;;;8.66;70.30
48424;BME280;34232;42.502;26.014;2023-02-04T11:55:27;99391.16;;;8.59;69.84
48424;BME280;34232;42.502;26.014;2023-02-04T11:57:54;99390.59;;;8.56;70.97
48424;BME280;34232;42.502;26.014;2023-02-04T12:00:25;99379.78;;;8.49;69.98
48424;BME280;34232;42.502;26.014;2023-02-04T12:03:00;99392.25;;;8.57;69.20
48424;BME280;34232;42.502;26.014;2023-02-04T12:05:44;99370.94;;;8.50;68.95
48424;BME280;34232;42.502;26.014;2023-02-04T12:10:38;99383.69;;;8.55;66.88
48424;BME280;34232;42.502;26.014;2023-02-04T12:13:12;99366.53;;;8.51;67.40
48424;BME280;34232;42.502;26.014;2023-02-04T12:15:40;99367.38;;;8.51;66.55
48424;BME280;34232;42.502;26.014;2023-02-04T12:18:08;99369.59;;;8.56;66.65
48424;BME280;34232;42.502;26.014;2023-02-04T12:20:37;99367.41;;;8.61;66.18
48424;BME280;34232;42.502;26.014;2023-02-04T12:23:03;99360.25;;;8.63;65.58
48424;BME280;34232;42.502;26.014;2023-02-04T12:25:29;99365.31;;;8.55;65.10
48424;BME280;34232;42.502;26.014;2023-02-04T12:27:55;99363.00;;;8.61;65.13
48424;BME280;34232;42.502;26.014;2023-02-04T12:30:24;99356.53;;;8.65;65.02
48424;BME280;34232;42.502;26.014;2023-02-04T12:32:50;99352.56;;;8.71;64.59
48424;BME280;34232;42.502;26.014;2023-02-04T12:35:16;99353.00;;;8.76;63.92
48424;BME280;34232;42.502;26.014;2023-02-04T12:37:41;99353.97;;;8.75;64.15
48424;BME280;34232;42.502;26.014;2023-02-04T12:40:08;99365.56;;;8.82;63.88
48424;BME280;34232;42.502;26.014;2023-02-04T12:42:34;99348.41;;;8.78;65.31
48424;BME280;34232;42.502;26.014;2023-02-04T12:44:59;99343.50;;;8.85;63.88
48424;BME280;34232;42.502;26.014;2023-02-04T12:47:25;99349.47;;;8.96;62.23
48424;BME280;34232;42.502;26.014;2023-02-04T12:49:51;99351.72;;;9.10;62.38
48424;BME280;34232;42.502;26.014;2023-02-04T12:52:16;99359.31;;;9.13;63.24
48424;BME280;34232;42.502;26.014;2023-02-04T12:54:42;99354.06;;;9.04;63.01
48424;BME280;34232;42.502;26.014;2023-02-04T12:57:08;99344.66;;;9.01;65.01
48424;BME280;34232;42.502;26.014;2023-02-04T12:59:33;99363.97;;;9.00;66.32
48424;BME280;34232;42.502;26.014;2023-02-04T13:01:59;99365.88;;;8.89;67.96
48424;BME280;34232;42.502;26.014;2023-02-04T13:04:24;99368.28;;;8.71;69.19
48424;BME280;34232;42.502;26.014;2023-02-04T13:06:50;99364.22;;;8.57;69.96
48424;BME280;34232;42.502;26.014;2023-02-04T13:09:17;99371.50;;;8.44;70.79
48424;BME280;34232;42.502;26.014;2023-02-04T13:11:44;99376.66;;;8.34;72.29
48424;BME280;34232;42.502;26.014;2023-02-04T13:14:09;99364.72;;;8.30;71.79
48424;BME280;34232;42.502;26.014;2023-02-04T13:16:35;99368.66;;;8.36;72.10